Latest Coastal Weather Observations for Strahan

IDT60701

Issued at 10:03 pm EST Wednesday 28 September 2016 (issued every 10 minutes, with the page automatically refreshed every 10 minutes)

About coastal observations | Map of coastal stations | Coastal observations for TAS | Marine services | Other Formats
Station Details ID: 097072 Name: STRAHAN AERODROME Lat: -42.16 Lon: 145.29 Height: 21.0 m
Data from the previous 72 hours. | See also: Recent months at Strahan
Date/Time
EST
Temp
°C
Wind Pressure Rain since
9am
mm
Weather Cloud Vis
km
Sea
Height
m
Swell
Dir  Spd
kts
Gust
kts
hPa Trend Height
m
Period
s
Dir
28/10:00pm 7.2 ESE 4 5 1000.9 - 0.2 - - 10 - - - -
28/09:30pm 6.3 ESE 1 4 1001.6 - 0.2 - - 10 - - - -
28/09:00pm 7.3 NE 5 7 1001.7 - 0.2 - - 10 - - - -
28/08:30pm 7.3 E 5 7 1002.4 - 0.2 - - 10 - - - -
28/08:00pm 8.2 ENE 5 6 1003.1 - 0.2 - - 10 - - - -
28/07:30pm 8.9 E 3 4 1003.6 - 0.2 - - 10 - - - -
28/07:00pm 10.1 NNE 4 5 1003.5 - 0.2 - - 10 - - - -
28/06:30pm 10.6 CALM 0 0 1003.2 - 0.2 - - 10 - - - -
28/06:00pm 11.5 WNW 2 3 1003.3 - 0.2 - - 10 - - - -
28/05:30pm 12.5 WSW 6 7 1003.1 - 0.2 - - 10 - - - -
28/05:00pm 13.4 WNW 8 10 1003.6 - 0.2 - - 10 - - - -
28/04:30pm 14.2 WNW 7 9 1003.3 - 0.2 - - 10 - - - -
28/04:00pm 14.7 W 8 10 1002.9 - 0.2 - - 10 - - - -
28/03:30pm 15.3 W 6 8 1003.1 - 0.2 - - 10 - - - -
28/03:00pm 14.6 W 6 10 1003.9 - 0.2 - - 10 - - - -
28/02:30pm 14.8 W 9 12 1004.7 - 0.2 - - 10 - - - -
28/02:00pm 15.3 WNW 9 12 1005.3 - 0.2 - - 10 - - - -
28/01:30pm 14.9 WNW 9 13 1006.1 - 0.2 - - 10 - - - -
28/01:00pm 15.1 WNW 10 13 1006.8 - 0.2 - - 10 - - - -
28/12:30pm 15.0 WNW 11 14 1007.4 - 0.2 - - 10 - - - -
28/12:00pm 15.2 W 10 13 1007.8 - 0.0 - Mostly clear 10 - - - -
28/11:30am 15.2 N 7 11 1008.2 - 0.0 - Partly cloudy 10 - - - -
28/11:00am 15.2 N 6 11 1008.7 - 0.0 - Partly cloudy 10 - - - -
28/10:30am 12.8 NNW 8 12 1009.1 - 0.0 - Partly cloudy 10 - - - -
28/10:00am 13.3 N 5 10 1009.5 - 0.0 - Partly cloudy 10 - - - -
28/09:30am 12.8 NNE 6 9 1009.7 - 0.0 - Partly cloudy 10 - - - -
28/09:00am 11.7 N 5 8 1010.0 - 0.8 - Partly cloudy 10 - - - -
28/08:30am 10.5 NNE 5 7 1010.0 - 0.8 - Partly cloudy 10 - - - -
28/08:00am 9.6 NNE 6 8 1010.1 - 0.8 - Partly cloudy 10 - - - -
28/07:30am 9.6 NE 6 9 1010.1 - 0.8 - Partly cloudy 10 - - - -
28/07:00am 8.7 NNE 6 8 1010.0 - 0.8 - Partly cloudy 10 - - - -
28/06:30am 7.1 NNE 7 8 1010.1 - 0.8 - Partly cloudy 10 - - - -
28/06:00am 6.3 NNE 7 8 1009.7 - 0.8 - Mostly clear 10 - - - -
28/05:30am 6.3 NNE 6 7 1009.6 - 0.8 - - 10 - - - -
28/05:00am 6.3 NNE 6 7 1009.4 - 0.8 - - 10 - - - -
28/04:30am 6.8 NNE 7 8 1009.3 - 0.8 - - 10 - - - -
28/04:00am 7.2 N 5 6 1009.4 - 0.8 - - 10 - - - -
28/03:30am 7.2 WNW 3 4 1009.3 - 0.8 - - 10 - - - -
28/03:00am 8.3 W 6 8 1009.2 - 0.8 - - 10 - - - -
28/02:30am 9.0 W 7 10 1009.0 - 0.8 - - 10 - - - -
28/02:00am 9.3 W 8 10 1009.1 - 0.8 - Partly cloudy 10 - - - -
28/01:30am 9.7 WNW 7 11 1009.2 - 0.8 - Partly cloudy 10 - - - -
28/01:00am 9.6 WNW 8 11 1009.0 - 0.8 - Partly cloudy 10 - - - -
28/12:36am 9.8 WNW 7 10 1009.0 - 0.8 - Partly cloudy 10 - - - -
28/12:30am 9.9 NW 7 10 1009.0 - 0.8 - Partly cloudy 10 - - - -
28/12:20am 10.0 N 6 9 1008.9 - 0.8 - Partly cloudy 10 - - - -
28/12:07am 10.5 NW 7 10 1008.8 - 0.6 - Partly cloudy 10 - - - -
28/12:00am 10.4 NW 7 11 1008.8 - 0.6 - Cloudy 10 - - - -
 
Date/Time
EST
Temp
°C
Wind Pressure Rain since
9am
mm
Weather Cloud Vis
km
Sea
Height
m
Swell
Dir  Spd
kts
Gust
kts
hPa Trend Height
m
Period
s
Dir
27/11:56pm 10.4 NW 7 11 1008.7 - 0.6 - Partly cloudy 10 - - - -
27/11:53pm 10.4 NNW 7 11 1008.7 - 0.6 - Partly cloudy 10 - - - -
27/11:30pm 9.8 N 7 11 1008.8 - 0.6 - Partly cloudy 10 - - - -
27/11:00pm 9.6 N 10 14 1008.6 - 0.6 - Partly cloudy 10 - - - -
27/10:58pm 9.6 N 9 14 1008.7 - 0.6 - Partly cloudy 10 - - - -
27/10:50pm 9.5 N 9 14 1008.6 - 0.6 - Partly cloudy 10 - - - -
27/10:30pm 9.5 N 10 15 1008.5 - 0.6 - Partly cloudy 5 - - - -
27/10:00pm 9.3 NNE 7 10 1008.3 - 0.2 - Partly cloudy 10 - - - -
27/09:30pm 9.4 N 6 10 1008.6 - 0.2 - Partly cloudy 10 - - - -
27/09:00pm 10.2 N 5 9 1008.7 - 0.0 - Cloudy 10 - - - -
27/08:30pm 10.5 N 9 14 1008.9 - 0.0 - Partly cloudy 10 - - - -
27/08:00pm 10.4 N 9 13 1009.0 - 0.0 - Partly cloudy 10 - - - -
27/07:30pm 10.5 N 6 9 1009.0 - 0.0 - Partly cloudy 10 - - - -
27/07:00pm 10.7 NNW 11 15 1008.9 - 0.0 - Partly cloudy 10 - - - -
27/06:30pm 10.7 NW 11 14 1008.8 - 0.0 - Partly cloudy 10 - - - -
27/06:00pm 10.7 NW 10 15 1008.7 - 0.0 - Mostly clear 10 - - - -
27/05:30pm 11.7 NW 13 18 1008.6 - 0.0 - Partly cloudy 10 - - - -
27/05:00pm 12.0 NW 14 18 1008.4 - 0.0 - Partly cloudy 10 - - - -
27/04:30pm 13.0 NW 18 23 1008.2 - 0.0 - Partly cloudy 10 - - - -
27/04:00pm 13.1 NW 15 19 1008.0 - 0.0 - Partly cloudy 10 - - - -
27/03:30pm 13.0 NW 15 20 1008.0 - 0.0 - Partly cloudy 10 - - - -
27/03:00pm 13.0 NW 12 16 1007.8 - 0.0 - Cloudy 10 - - - -
27/02:30pm 12.9 NW 14 19 1007.9 - 0.0 - Partly cloudy 10 - - - -
27/02:00pm 13.3 NW 13 17 1007.9 - 0.0 - Partly cloudy 10 - - - -
27/01:30pm 13.0 NW 14 17 1007.9 - 0.0 - Partly cloudy 10 - - - -
27/01:00pm 15.6 WNW 14 17 1007.9 - 0.0 - - 10 - - - -
27/12:30pm 15.0 WNW 14 18 1008.1 - 0.0 - Partly cloudy 10 - - - -
27/12:00pm 14.3 WNW 14 19 1008.0 - 0.0 - Mostly clear 10 - - - -
27/11:30am 15.4 WNW 10 14 1007.9 - 0.0 - - 10 - - - -
27/11:00am 15.1 NW 9 14 1008.2 - 0.0 - - 10 - - - -
27/10:30am 14.5 NW 9 15 1008.5 - 0.0 - - 10 - - - -
27/10:00am 13.2 NW 10 13 1008.4 - 0.0 - Partly cloudy 10 - - - -
27/09:30am 13.6 NNE 6 9 1008.5 - 0.0 - - 10 - - - -
27/09:00am 12.8 NNE 9 13 1008.4 - 0.0 - Mostly clear 10 - - - -
27/08:30am 11.6 NNE 8 10 1008.5 - 0.0 - - 10 - - - -
27/08:00am 9.4 NNE 7 11 1008.4 - 0.0 - - 10 - - - -
27/07:30am 8.2 NNE 7 9 1008.1 - 0.0 - - 10 - - - -
27/07:00am 6.9 NNE 6 8 1007.9 - 0.0 - - 10 - - - -
27/06:30am 5.9 NNE 8 10 1007.7 - 0.0 - - 10 - - - -
27/06:00am 5.5 NNE 8 11 1007.6 - 0.0 - - 10 - - - -
27/05:30am 5.3 NE 7 10 1007.6 - 0.0 - - 10 - - - -
27/05:00am 5.4 NNE 5 7 1007.6 - 0.0 - Partly cloudy 10 - - - -
27/04:30am 5.3 ENE 2 5 1007.5 - 0.0 - Partly cloudy 10 - - - -
27/04:00am 4.9 CALM 0 0 1007.4 - 0.0 - Partly cloudy 10 - - - -
27/03:30am 4.9 E 3 4 1007.2 - 0.0 - - 10 - - - -
27/03:00am 5.3 NE 3 5 1007.3 - 0.0 - - 10 - - - -
27/02:30am 5.6 NE 4 5 1007.4 - 0.0 - - 10 - - - -
27/02:00am 5.5 NNE 5 7 1007.5 - 0.0 - - 10 - - - -
27/01:30am 6.0 NNE 5 7 1007.7 - 0.0 - - 10 - - - -
27/01:00am 6.1 NNE 6 8 1007.8 - 0.0 - - 10 - - - -
27/12:30am 6.2 NNE 5 8 1007.9 - 0.0 - - 10 - - - -
27/12:00am 6.4 NNE 6 9 1008.2 - 0.0 - - 10 - - - -
 
Date/Time
EST
Temp
°C
Wind Pressure Rain since
9am
mm
Weather Cloud Vis
km
Sea
Height
m
Swell
Dir  Spd
kts
Gust
kts
hPa Trend Height
m
Period
s
Dir
26/11:30pm 6.4 NNE 7 9 1008.3 - 0.0 - - 10 - - - -
26/11:00pm 6.4 NNE 5 7 1008.5 - 0.0 - - 10 - - - -
26/10:30pm 6.7 NNE 6 7 1008.7 - 0.0 - - 10 - - - -
26/10:00pm 6.9 NNE 5 7 1008.9 - 0.0 - - 10 - - - -
26/09:30pm 7.3 NNE 7 8 1009.0 - 0.0 - - 10 - - - -
26/09:00pm 7.8 NNE 6 9 1009.0 - 0.0 - - 10 - - - -
26/08:30pm 8.3 NNE 7 9 1009.0 - 0.0 - - 10 - - - -
26/08:00pm 9.1 NE 6 9 1009.1 - 0.0 - Partly cloudy 10 - - - -
26/07:30pm 9.4 NNE 5 7 1009.0 - 0.0 - Partly cloudy 10 - - - -
26/07:00pm 10.2 NE 5 6 1008.8 - 0.0 - Partly cloudy 10 - - - -
26/06:30pm 10.9 N 4 4 1008.6 - 0.0 - Partly cloudy 10 - - - -
26/06:00pm 11.4 NW 5 6 1008.6 - 0.0 - Partly cloudy 10 - - - -
26/05:30pm 12.2 WNW 10 14 1008.5 - 0.0 - Partly cloudy 10 - - - -
26/05:00pm 12.9 WNW 8 11 1008.3 - 0.0 - Partly cloudy 10 - - - -
26/04:30pm 13.2 NW 7 10 1008.1 - 0.0 - Partly cloudy 10 - - - -
26/04:00pm 12.9 NNW 8 13 1008.2 - 0.0 - Partly cloudy 10 - - - -
26/03:30pm 14.4 WNW 11 14 1008.1 - 0.0 - Partly cloudy 10 - - - -
26/03:00pm 14.4 NW 10 15 1008.1 - 0.0 - - 10 - - - -
26/02:30pm 14.9 NW 9 14 1008.2 - 0.0 - - 10 - - - -
26/02:00pm 14.1 WNW 11 14 1008.3 - 0.0 - - 10 - - - -
26/01:30pm 14.3 WNW 12 17 1008.5 - 0.0 - Partly cloudy 10 - - - -
26/01:00pm 14.7 NW 13 17 1008.9 - 0.0 - Partly cloudy 10 - - - -
26/12:30pm 13.8 NW 15 19 1009.2 - 0.0 - - 10 - - - -
26/12:00pm 14.8 NW 14 18 1009.3 - 0.0 - - 10 - - - -
26/11:30am 14.3 NW 11 16 1009.5 - 0.0 - - 10 - - - -
26/11:00am 14.2 NW 12 17 1009.7 - 0.0 - - 10 - - - -
26/10:30am 13.4 NW 13 17 1010.0 - 0.0 - Partly cloudy 10 - - - -
26/10:00am 13.3 NW 11 14 1010.2 - 0.0 - Partly cloudy 10 - - - -
26/09:30am 11.7 NNW 10 14 1010.4 - 0.0 - Partly cloudy 10 - - - -
26/09:00am 12.1 N 9 13 1010.4 - 1.4 - - 10 - - - -
26/08:30am 11.4 N 8 13 1010.5 - 1.4 - Partly cloudy 10 - - - -
26/08:00am 10.1 NNE 7 12 1010.5 - 1.4 - Partly cloudy 10 - - - -
26/07:30am 8.3 NNE 7 10 1010.7 - 1.4 - Partly cloudy 10 - - - -
26/07:00am 6.8 NNE 5 7 1010.7 - 1.4 - Partly cloudy 10 - - - -
26/06:30am 6.4 NNE 6 9 1010.7 - 1.4 - Partly cloudy 10 - - - -
26/06:00am 5.7 NNE 7 10 1010.6 - 1.4 - Partly cloudy 10 - - - -
26/05:30am 5.6 NNE 6 8 1010.5 - 1.4 - Partly cloudy 10 - - - -
26/05:00am 5.9 NNE 7 10 1010.5 - 1.4 - Partly cloudy 10 - - - -
26/04:30am 6.2 NNE 7 9 1010.5 - 1.4 - Partly cloudy 10 - - - -
26/04:00am 6.1 NNE 7 8 1010.5 - 1.4 - Partly cloudy 10 - - - -
26/03:30am 6.3 NNE 6 7 1010.6 - 1.4 - - 10 - - - -
26/03:00am 6.8 NNE 5 7 1010.6 - 1.4 - Cloudy 10 - - - -
26/02:30am 7.2 N 5 7 1010.9 - 1.4 - Partly cloudy 10 - - - -
26/02:00am 7.1 N 6 8 1011.1 - 1.4 - Partly cloudy 10 - - - -
26/01:30am 7.3 NNE 5 8 1011.3 - 1.4 - Cloudy 10 - - - -
26/01:00am 7.4 NE 7 10 1011.4 - 1.4 - Cloudy 10 - - - -
26/12:30am 7.3 NE 7 10 1011.4 - 1.4 - Cloudy 10 - - - -
26/12:00am 7.2 NNE 7 9 1011.5 - 1.4 - Cloudy 10 - - - -
 
Date/Time
EST
Temp
°C
Wind Pressure Rain since
9am
mm
Weather Cloud Vis
km
Sea
Height
m
Swell
Dir  Spd
kts
Gust
kts
hPa Trend Height
m
Period
s
Dir
25/11:30pm 7.3 NNE 7 9 1011.6 - 1.4 - Partly cloudy 10 - - - -
25/11:00pm 7.4 NNE 6 7 1011.8 - 1.4 - Partly cloudy 10 - - - -
25/10:30pm 7.8 NNE 6 9 1012.0 - 1.4 - Partly cloudy 10 - - - -

Other Formats:

Comma delimited format used in spreadsheet applications
http://www.bom.gov.au/fwo/IDT60701/IDT60701.94956.axf

JavaScript Object Notation format (JSON) in row-major order
http://www.bom.gov.au/fwo/IDT60701/IDT60701.94956.json